Time,TemperatureF,DewpointF,PressureIn,WindDirection,WindDirectionDegrees,WindSpeedMPH,WindSpeedGustMPH,Humidity,HourlyPrecipIn,Conditions,Clouds,dailyrainin,SoftwareType,DateUTC
2013-08-05 06:39:00,55.0,53.0,30.11,South,172,0.0,0.0,92,0.00,,,0.00,,2013-08-05 13:39:00,
2013-08-05 06:45:00,55.0,53.0,30.11,South,172,0.0,0.0,92,0.00,,,0.00,,2013-08-05 13:45:00,
2013-08-05 06:54:00,55.0,53.0,30.11,South,172,0.0,0.0,92,0.00,,,0.00,,2013-08-05 13:54:00,
2013-08-05 07:23:00,55.0,53.0,30.11,South,171,0.0,0.0,92,0.00,,,0.00,,2013-08-05 14:23:00,
2013-08-05 07:33:00,55.0,53.0,30.11,South,172,0.0,0.0,92,0.00,,,0.00,,2013-08-05 14:33:00,
2013-08-05 07:48:00,55.0,53.0,30.11,South,172,0.0,0.0,92,0.00,,,0.00,,2013-08-05 14:48:00,
2013-08-05 07:54:00,55.0,53.0,30.11,South,172,0.0,0.0,92,0.00,,,0.00,,2013-08-05 14:54:00,
2013-08-05 08:13:00,55.0,53.0,30.11,South,171,0.0,0.0,92,0.00,,,0.00,,2013-08-05 15:13:00,
2013-08-05 08:24:00,55.0,53.0,30.11,South,171,0.0,0.0,92,0.00,,,0.00,,2013-08-05 15:24:00,
2013-08-05 08:32:00,55.0,52.0,30.11,South,171,0.0,0.0,91,0.00,,,0.00,,2013-08-05 15:32:00,
2013-08-05 08:49:00,55.0,52.0,30.11,South,171,0.0,0.0,91,0.00,,,0.00,,2013-08-05 15:49:00,
2013-08-05 08:58:00,56.0,53.0,30.11,South,171,0.0,0.0,90,0.00,,,0.00,,2013-08-05 15:58:00,
2013-08-05 09:14:00,56.0,53.0,30.11,South,171,0.0,0.0,90,0.00,,,0.00,,2013-08-05 16:14:00,
2013-08-05 09:23:00,56.0,53.0,30.11,South,171,0.0,0.0,90,0.00,,,0.00,,2013-08-05 16:23:00,
2013-08-05 09:32:00,57.0,53.0,30.12,South,172,0.0,0.0,88,0.00,,,0.00,,2013-08-05 16:32:00,
2013-08-05 09:45:00,57.0,53.0,30.12,South,172,0.0,0.0,88,0.00,,,0.00,,2013-08-05 16:45:00,
2013-08-05 09:58:00,57.0,53.0,30.12,South,172,0.0,0.0,88,0.00,,,0.00,,2013-08-05 16:58:00,
2013-08-05 10:14:00,57.0,53.0,30.12,South,172,0.0,0.0,88,0.00,,,0.00,,2013-08-05 17:14:00,
2013-08-05 10:22:00,57.0,53.0,30.12,South,172,0.0,0.0,88,0.00,,,0.00,,2013-08-05 17:22:00,
2013-08-05 10:32:00,58.0,54.0,30.12,South,172,0.0,0.0,88,0.00,,,0.00,,2013-08-05 17:32:00,
2013-08-05 10:50:00,58.0,54.0,30.12,South,172,0.0,0.0,88,0.00,,,0.00,,2013-08-05 17:50:00,
2013-08-05 10:57:00,58.0,54.0,30.12,South,172,0.0,0.0,88,0.00,,,0.00,,2013-08-05 17:57:00,
2013-08-05 11:13:00,60.0,56.0,30.12,SE,142,0.0,0.0,86,0.00,,,0.00,,2013-08-05 18:13:00,
2013-08-05 11:45:00,63.0,57.0,30.12,SE,144,0.0,0.0,80,0.00,,,0.00,,2013-08-05 18:45:00,
2013-08-05 11:54:00,63.0,57.0,30.12,SE,144,0.0,0.0,80,0.00,,,0.00,,2013-08-05 18:54:00,
2013-08-05 12:02:00,64.0,57.0,30.11,ESE,106,0.0,1.0,79,0.00,,,0.00,,2013-08-05 19:02:00,
2013-08-05 12:14:00,64.0,57.0,30.11,ESE,106,0.0,1.0,79,0.00,,,0.00,,2013-08-05 19:14:00,
2013-08-05 16:32:00,71.0,58.0,30.07,SE,136,2.0,4.0,63,0.00,,,0.00,,2013-08-05 23:32:00,
2013-08-05 16:46:00,71.0,58.0,30.07,SE,136,2.0,4.0,63,0.00,,,0.00,,2013-08-05 23:46:00,
2013-08-05 16:58:00,70.0,57.0,30.06,SE,125,1.0,3.0,63,0.00,,,0.00,,2013-08-05 23:58:00,
2013-08-05 17:23:00,70.0,57.0,30.06,SE,125,1.0,3.0,63,0.00,,,0.00,,2013-08-06 00:23:00,
2013-08-05 17:32:00,69.0,56.0,30.06,NNE,23,2.0,5.0,64,0.00,,,0.00,,2013-08-06 00:32:00,
2013-08-05 17:45:00,69.0,56.0,30.06,NNE,23,2.0,5.0,64,0.00,,,0.00,,2013-08-06 00:45:00,
2013-08-05 17:57:00,68.0,57.0,30.05,South,178,0.0,3.0,67,0.00,,,0.00,,2013-08-06 00:57:00,
2013-08-05 18:02:00,68.0,57.0,30.05,South,178,0.0,3.0,67,0.00,,,0.00,,2013-08-06 01:02:00,
2013-08-05 18:14:00,68.0,57.0,30.05,South,178,0.0,3.0,67,0.00,,,0.00,,2013-08-06 01:14:00,
2013-08-05 18:33:00,65.0,55.0,30.05,SE,138,0.0,4.0,71,0.00,,,0.00,,2013-08-06 01:33:00,
2013-08-05 18:51:00,65.0,55.0,30.05,SE,138,0.0,4.0,71,0.00,,,0.00,,2013-08-06 01:51:00,
2013-08-05 18:58:00,63.0,55.0,30.06,SE,134,0.0,3.0,74,0.00,,,0.00,,2013-08-06 01:58:00,
2013-08-05 19:23:00,63.0,55.0,30.06,SE,134,0.0,3.0,74,0.00,,,0.00,,2013-08-06 02:23:00,
2013-08-05 19:32:00,61.0,53.0,30.06,SE,142,1.0,4.0,76,0.00,,,0.00,,2013-08-06 02:32:00,
2013-08-05 19:52:00,60.0,53.0,30.06,SE,142,0.0,4.0,79,0.00,,,0.00,,2013-08-06 02:52:00,
2013-08-05 20:01:00,60.0,53.0,30.06,SE,142,0.0,4.0,79,0.00,,,0.00,,2013-08-06 03:01:00,
2013-08-05 20:33:00,58.0,52.0,30.07,SE,142,0.0,1.0,81,0.00,,,0.00,,2013-08-06 03:33:00,
2013-08-05 20:45:00,58.0,52.0,30.07,SE,142,0.0,1.0,81,0.00,,,0.00,,2013-08-06 03:45:00,
2013-08-05 20:52:00,58.0,52.0,30.07,SE,142,0.0,1.0,81,0.00,,,0.00,,2013-08-06 03:52:00,
2013-08-05 21:01:00,57.0,52.0,30.07,SE,142,0.0,1.0,83,0.00,,,0.00,,2013-08-06 04:01:00,
2013-08-05 21:11:00,57.0,52.0,30.07,SE,142,0.0,1.0,83,0.00,,,0.00,,2013-08-06 04:11:00,
2013-08-05 21:32:00,57.0,52.0,30.08,SE,142,0.0,1.0,84,0.00,,,0.00,,2013-08-06 04:32:00,
2013-08-05 21:44:00,57.0,52.0,30.08,SE,142,0.0,1.0,84,0.00,,,0.00,,2013-08-06 04:44:00,
2013-08-05 21:53:00,57.0,52.0,30.08,SE,142,0.0,1.0,84,0.00,,,0.00,,2013-08-06 04:53:00,
2013-08-05 22:02:00,56.0,52.0,30.08,SE,142,0.0,1.0,85,0.00,,,0.00,,2013-08-06 05:02:00,
2013-08-05 22:11:00,56.0,52.0,30.08,SE,142,0.0,1.0,85,0.00,,,0.00,,2013-08-06 05:11:00,
2013-08-05 22:32:00,56.0,52.0,30.09,SSE,156,0.0,0.0,85,0.00,,,0.00,,2013-08-06 05:32:00,
2013-08-05 22:43:00,56.0,52.0,30.09,SSE,156,0.0,0.0,85,0.00,,,0.00,,2013-08-06 05:43:00,
2013-08-05 22:53:00,56.0,52.0,30.09,SSE,156,0.0,0.0,85,0.00,,,0.00,,2013-08-06 05:53:00,
2013-08-05 23:01:00,56.0,52.0,30.09,SSE,156,0.0,0.0,85,0.00,,,0.00,,2013-08-06 06:01:00,
2013-08-05 23:11:00,56.0,52.0,30.09,SSE,156,0.0,0.0,85,0.00,,,0.00,,2013-08-06 06:11:00,
2013-08-05 23:22:00,56.0,52.0,30.09,SSE,156,0.0,0.0,85,0.00,,,0.00,,2013-08-06 06:22:00,
2013-08-05 23:32:00,55.0,51.0,30.09,SSE,157,0.0,3.0,86,0.00,,,0.00,,2013-08-06 06:32:00,
2013-08-05 23:43:00,55.0,51.0,30.09,SSE,157,0.0,3.0,86,0.00,,,0.00,,2013-08-06 06:43:00,
2013-08-05 23:52:00,55.0,51.0,30.09,SSE,157,0.0,3.0,86,0.00,,,0.00,,2013-08-06 06:52:00,